Coastal 303 — WDE2540 — position and weather

sailwx.info

Track history (hours):
 
Tides and Currents Weather Stations Pressure Air Temp Water Temp Dewpoint Dewpoint Depression Visibility Wind Speed Wind Dir Waves Ship Positions

Coastal 303

Owner: U.S. United Ocean Services, LLC, Tampa, FL. More information available from US FCC via Universal Licensing System and Coast Guard Vessel Documentation Center.

Last reported at 2015-May-07 20:33 UTC. Time now 2015-May-28 12:10 UTC.
Position N 27°48' W 082°25'.
Warning: this ship's position is 20 days out of date.

Length 180 m; draft 8.2 m.

Type: Towing. MMSI: 366751340.

Date/timePositionNaut miles runAvg speedWind from/ knotsBaromVisibWave heightAir tempDewpointWater temp
2015-May-07 20:33N 27°48' W 082°25'0 0.0
2015-May-07 19:31N 27°48' W 082°25'0 0.0
2015-May-07 18:28N 27°48' W 082°25'0 0.0
2015-May-07 17:31N 27°48' W 082°25'0 0.0
2015-May-07 16:32N 27°48' W 082°25'0 0.0
2015-May-07 15:29N 27°48' W 082°25'0 0.0
2015-May-07 14:32N 27°48' W 082°25'0 0.0
2015-May-07 13:33N 27°48' W 082°25'0 0.0
2015-May-07 12:33N 27°48' W 082°25'0 0.0
2015-May-07 11:33N 27°48' W 082°25'0 0.0
2015-May-07 10:28N 27°48' W 082°25'0 0.0
2015-May-07 09:31N 27°48' W 082°25'0 0.0
2015-May-07 08:31N 27°48' W 082°25'0 0.0
2015-May-07 07:32N 27°48' W 082°25'0 0.0
2015-May-07 06:32N 27°48' W 082°25'0 0.0
2015-May-07 05:32N 27°48' W 082°25'0 0.0
2015-May-07 04:33N 27°48' W 082°25'0 0.0
2015-May-07 03:33N 27°48' W 082°25'0 0.0
2015-May-07 02:30N 27°48' W 082°25'0 0.0
2015-May-07 01:28N 27°48' W 082°25'0 0.0
2015-May-07 00:31N 27°48' W 082°25'0 0.0
2015-May-06 23:31N 27°48' W 082°25'0 0.0
2015-May-06 22:32N 27°48' W 082°25'0 0.0
2015-May-06 21:32N 27°48' W 082°25'0 0.0
2015-May-06 20:32N 27°48' W 082°25'0 0.0
2015-May-06 19:33N 27°48' W 082°25'0 0.0
2015-May-06 18:33N 27°48' W 082°25'0 0.0
2015-May-06 17:33N 27°48' W 082°25'0 0.0
2015-May-06 16:31N 27°48' W 082°25'1 0.7
2015-May-06 15:31N 27°48' W 082°25'0 0.0
2015-May-06 14:32N 27°48' W 082°25'0 0.0
2015-May-06 13:32N 27°48' W 082°25'0 0.0
2015-May-06 12:32N 27°48' W 082°25'0 0.0
2015-May-06 11:33N 27°48' W 082°25'0 0.0
2015-May-06 10:33N 27°48' W 082°25'0 0.0
2015-May-06 09:33N 27°48' W 082°25'0 0.0
2015-May-06 08:19N 27°48' W 082°25'0 0.0
2015-May-06 07:28N 27°48' W 082°25'0 0.0
2015-May-06 06:28N 27°48' W 082°25'0 0.0
2015-May-06 05:32N 27°48' W 082°25'0 0.0
2015-May-06 04:32N 27°48' W 082°25'0 0.0
2015-May-06 03:32N 27°48' W 082°25'0 0.0
2015-May-06 02:30N 27°48' W 082°25'0 0.0
2015-May-06 01:33N 27°48' W 082°25'0 0.0
2015-May-06 00:24N 27°48' W 082°25'0 0.0
2015-May-05 23:31N 27°48' W 082°25'0 0.0
2015-May-05 22:31N 27°48' W 082°25'0 0.0
2015-May-05 21:31N 27°48' W 082°25'0 0.0
2015-May-05 20:32N 27°48' W 082°25'0 0.0
2015-May-05 19:32N 27°48' W 082°25'0 0.0
2015-May-05 18:26N 27°48' W 082°25'0 0.0
2015-May-05 17:33N 27°48' W 082°25'0 0.0
2015-May-05 16:33N 27°48' W 082°25'0 0.0
2015-May-05 15:33N 27°48' W 082°25'0 0.0
2015-May-05 14:31N 27°48' W 082°25'0 0.0
2015-May-05 13:31N 27°48' W 082°25'0 0.0
2015-May-05 12:31N 27°48' W 082°25'0 0.0
2015-May-05 11:32N 27°48' W 082°25'0 0.0
2015-May-05 10:32N 27°48' W 082°25'0 0.0
2015-May-05 09:29N 27°48' W 082°25'0 0.0
2015-May-05 08:30N 27°48' W 082°25'0 0.0
2015-May-05 07:33N 27°48' W 082°25'2 2.2
2015-May-05 06:33N 27°49' W 082°27'6 6.2
2015-May-05 05:33N 27°44' W 082°32'  
Track history (hours):
 
Tides and Currents Weather Stations Pressure Air Temp Water Temp Dewpoint Dewpoint Depression Visibility Wind Speed Wind Dir Waves Ship Positions

Coastal 303

Owner: U.S. United Ocean Services, LLC, Tampa, FL. More information available from US FCC via Universal Licensing System and Coast Guard Vessel Documentation Center.

Last reported at 2015-May-07 20:33 UTC. Time now 2015-May-28 12:10 UTC.
Position N 27°48' W 082°25'.
Warning: this ship's position is 20 days out of date.

Length 180 m; draft 8.2 m.

Type: Towing. MMSI: 366751340.

Date/timePositionNaut miles runAvg speedWind from/ knotsBaromVisibWave heightAir tempDewpointWater temp
2015-May-07 20:33N 27°48' W 082°25'0 0.0
2015-May-07 19:31N 27°48' W 082°25'0 0.0
2015-May-07 18:28N 27°48' W 082°25'0 0.0
2015-May-07 17:31N 27°48' W 082°25'0 0.0
2015-May-07 16:32N 27°48' W 082°25'0 0.0
2015-May-07 15:29N 27°48' W 082°25'0 0.0
2015-May-07 14:32N 27°48' W 082°25'0 0.0
2015-May-07 13:33N 27°48' W 082°25'0 0.0
2015-May-07 12:33N 27°48' W 082°25'0 0.0
2015-May-07 11:33N 27°48' W 082°25'0 0.0
2015-May-07 10:28N 27°48' W 082°25'0 0.0
2015-May-07 09:31N 27°48' W 082°25'0 0.0
2015-May-07 08:31N 27°48' W 082°25'0 0.0
2015-May-07 07:32N 27°48' W 082°25'0 0.0
2015-May-07 06:32N 27°48' W 082°25'0 0.0
2015-May-07 05:32N 27°48' W 082°25'0 0.0
2015-May-07 04:33N 27°48' W 082°25'0 0.0
2015-May-07 03:33N 27°48' W 082°25'0 0.0
2015-May-07 02:30N 27°48' W 082°25'0 0.0
2015-May-07 01:28N 27°48' W 082°25'0 0.0
2015-May-07 00:31N 27°48' W 082°25'0 0.0
2015-May-06 23:31N 27°48' W 082°25'0 0.0
2015-May-06 22:32N 27°48' W 082°25'0 0.0
2015-May-06 21:32N 27°48' W 082°25'0 0.0
2015-May-06 20:32N 27°48' W 082°25'0 0.0
2015-May-06 19:33N 27°48' W 082°25'0 0.0
2015-May-06 18:33N 27°48' W 082°25'0 0.0
2015-May-06 17:33N 27°48' W 082°25'0 0.0
2015-May-06 16:31N 27°48' W 082°25'1 0.7
2015-May-06 15:31N 27°48' W 082°25'0 0.0
2015-May-06 14:32N 27°48' W 082°25'0 0.0
2015-May-06 13:32N 27°48' W 082°25'0 0.0
2015-May-06 12:32N 27°48' W 082°25'0 0.0
2015-May-06 11:33N 27°48' W 082°25'0 0.0
2015-May-06 10:33N 27°48' W 082°25'0 0.0
2015-May-06 09:33N 27°48' W 082°25'0 0.0
2015-May-06 08:19N 27°48' W 082°25'0 0.0
2015-May-06 07:28N 27°48' W 082°25'0 0.0
2015-May-06 06:28N 27°48' W 082°25'0 0.0
2015-May-06 05:32N 27°48' W 082°25'0 0.0
2015-May-06 04:32N 27°48' W 082°25'0 0.0
2015-May-06 03:32N 27°48' W 082°25'0 0.0
2015-May-06 02:30N 27°48' W 082°25'0 0.0
2015-May-06 01:33N 27°48' W 082°25'0 0.0
2015-May-06 00:24N 27°48' W 082°25'0 0.0
2015-May-05 23:31N 27°48' W 082°25'0 0.0
2015-May-05 22:31N 27°48' W 082°25'0 0.0
2015-May-05 21:31N 27°48' W 082°25'0 0.0
2015-May-05 20:32N 27°48' W 082°25'0 0.0
2015-May-05 19:32N 27°48' W 082°25'0 0.0
2015-May-05 18:26N 27°48' W 082°25'0 0.0
2015-May-05 17:33N 27°48' W 082°25'0 0.0
2015-May-05 16:33N 27°48' W 082°25'0 0.0
2015-May-05 15:33N 27°48' W 082°25'0 0.0
2015-May-05 14:31N 27°48' W 082°25'0 0.0
2015-May-05 13:31N 27°48' W 082°25'0 0.0
2015-May-05 12:31N 27°48' W 082°25'0 0.0
2015-May-05 11:32N 27°48' W 082°25'0 0.0
2015-May-05 10:32N 27°48' W 082°25'0 0.0
2015-May-05 09:29N 27°48' W 082°25'0 0.0
2015-May-05 08:30N 27°48' W 082°25'0 0.0
2015-May-05 07:33N 27°48' W 082°25'2 2.2
2015-May-05 06:33N 27°49' W 082°27'6 6.2
2015-May-05 05:33N 27°44' W 082°32'  

Dump ship's entire track history